Winning Drive — WDG4948 — position and weather

sailwx.info

Track history (hours):
 
Tides and Currents Weather Stations Pressure Air Temp Water Temp Dewpoint Dewpoint Depression Visibility Wind Speed Wind Dir Waves Ship Positions

Winning Drive

Owner: Winning Way LLC, Fort Lauderdale, FL. More information available from US FCC via Universal Licensing System and Coast Guard Vessel Documentation Center.

Last reported at 2017-May-15 11:25 UTC. Time now 2017-May-23 18:49 UTC.
Position N 26°45' W 080°03'.
Warning: this ship's position is 8 days out of date.

Length 40 m; draft 2.7 m.

Type: Pleasure craft. MMSI: 367541760.

Date/timePositionNaut miles runAvg speedWind from/ knotsBaromVisibWave heightAir tempDewpointWater temp
2017-May-15 11:25N 26°45' W 080°03'0 0.0
2017-May-15 10:37N 26°45' W 080°03'0 0.0
2017-May-15 10:09N 26°45' W 080°03'0 0.0
2017-May-15 09:51N 26°45' W 080°03'0 0.0
2017-May-15 09:25N 26°45' W 080°03'0 0.0
2017-May-15 08:52N 26°45' W 080°03'0 0.0
2017-May-15 08:28N 26°45' W 080°03'0 0.0
2017-May-15 07:54N 26°45' W 080°03'  
2017-May-12 12:01N 26°45' W 080°03'0 4.2
2017-May-12 11:57N 26°45' W 080°03'2 4.2
2017-May-12 11:27N 26°46' W 080°01'9 6.2
2017-May-12 10:01N 26°53' W 079°55'0 7.3
2017-May-12 10:00N 26°53' W 079°55'4 8.2
2017-May-12 09:30N 26°57' W 079°54'4 7.9
2017-May-12 09:00N 26°53' W 079°55'1114.7
2017-May-12 08:15N 26°42' W 079°56'514.1
2017-May-12 07:54N 26°38' W 079°55'614.0
2017-May-12 07:30N 26°32' W 079°55'713.8
2017-May-12 07:00N 26°25' W 079°55'713.8
2017-May-12 06:30N 26°18' W 079°55'714.4
2017-May-12 06:00N 26°11' W 079°55'714.9
2017-May-12 05:30N 26°04' W 079°55'815.0
2017-May-12 05:00N 25°56' W 079°56'714.8
2017-May-12 04:31N 25°49' W 079°56'814.9
2017-May-12 04:00N 25°41' W 079°56'815.4
2017-May-12 03:30N 25°34' W 079°58'  
Track history (hours):
 
Tides and Currents Weather Stations Pressure Air Temp Water Temp Dewpoint Dewpoint Depression Visibility Wind Speed Wind Dir Waves Ship Positions

Winning Drive

Owner: Winning Way LLC, Fort Lauderdale, FL. More information available from US FCC via Universal Licensing System and Coast Guard Vessel Documentation Center.

Last reported at 2017-May-15 11:25 UTC. Time now 2017-May-23 18:49 UTC.
Position N 26°45' W 080°03'.
Warning: this ship's position is 8 days out of date.

Length 40 m; draft 2.7 m.

Type: Pleasure craft. MMSI: 367541760.

Date/timePositionNaut miles runAvg speedWind from/ knotsBaromVisibWave heightAir tempDewpointWater temp
2017-May-15 11:25N 26°45' W 080°03'0 0.0
2017-May-15 10:37N 26°45' W 080°03'0 0.0
2017-May-15 10:09N 26°45' W 080°03'0 0.0
2017-May-15 09:51N 26°45' W 080°03'0 0.0
2017-May-15 09:25N 26°45' W 080°03'0 0.0
2017-May-15 08:52N 26°45' W 080°03'0 0.0
2017-May-15 08:28N 26°45' W 080°03'0 0.0
2017-May-15 07:54N 26°45' W 080°03'  
2017-May-12 12:01N 26°45' W 080°03'0 4.2
2017-May-12 11:57N 26°45' W 080°03'2 4.2
2017-May-12 11:27N 26°46' W 080°01'9 6.2
2017-May-12 10:01N 26°53' W 079°55'0 7.3
2017-May-12 10:00N 26°53' W 079°55'4 8.2
2017-May-12 09:30N 26°57' W 079°54'4 7.9
2017-May-12 09:00N 26°53' W 079°55'1114.7
2017-May-12 08:15N 26°42' W 079°56'514.1
2017-May-12 07:54N 26°38' W 079°55'614.0
2017-May-12 07:30N 26°32' W 079°55'713.8
2017-May-12 07:00N 26°25' W 079°55'713.8
2017-May-12 06:30N 26°18' W 079°55'714.4
2017-May-12 06:00N 26°11' W 079°55'714.9
2017-May-12 05:30N 26°04' W 079°55'815.0
2017-May-12 05:00N 25°56' W 079°56'714.8
2017-May-12 04:31N 25°49' W 079°56'814.9
2017-May-12 04:00N 25°41' W 079°56'815.4
2017-May-12 03:30N 25°34' W 079°58'  

Dump ship's entire track history